Time;durP1;ratioP1;P1;durP2;ratioP2;P2;SDS_P1;SDS_P2;PMS_P1;PMS_P2;Temp;Humidity;BMP_temperature;BMP_pressure;BME280_temperature;BME280_humidity;BME280_pressure;Samples;Min_cycle;Max_cycle;Signal;HPM_P1;HPM_P2
2022/05/17 00:01:04;;;;;;;8.63;6.97;;;17.80;99.90;;;;;;5089090;28;20028;-38
2022/05/17 00:03:29;;;;;;;7.97;6.13;;;17.70;99.90;;;;;;5088532;28;20028;-38
2022/05/17 00:05:55;;;;;;;12.48;6.45;;;17.60;99.90;;;;;;5088930;28;20024;-37
2022/05/17 00:08:20;;;;;;;7.65;5.97;;;17.50;99.90;;;;;;5088928;28;20397;-38
2022/05/17 00:10:47;;;;;;;8.30;5.43;;;17.40;99.90;;;;;;5088415;28;20089;-38
2022/05/17 00:13:13;;;;;;;8.27;6.53;;;17.40;99.90;;;;;;5088123;28;20063;-38
2022/05/17 00:15:41;;;;;;;14.40;8.05;;;17.30;99.90;;;;;;5088877;28;20027;-37
2022/05/17 00:18:10;;;;;;;7.60;6.32;;;17.20;99.90;;;;;;5088945;28;20430;-45
2022/05/17 00:20:36;;;;;;;7.53;6.30;;;17.20;99.90;;;;;;5076118;28;20020;-39
2022/05/17 00:23:02;;;;;;;9.80;6.32;;;17.20;99.90;;;;;;5082149;28;20024;-38
2022/05/17 00:25:27;;;;;;;8.48;6.45;;;17.10;99.90;;;;;;5089402;28;20097;-38
2022/05/17 00:27:53;;;;;;;8.02;6.40;;;17.00;99.90;;;;;;5092785;28;20024;-38
2022/05/17 00:30:19;;;;;;;13.23;6.97;;;17.00;99.90;;;;;;5093007;28;20028;-38
2022/05/17 00:32:44;;;;;;;7.63;6.57;;;16.90;99.90;;;;;;5092173;28;20020;-37
2022/05/17 00:35:10;;;;;;;10.50;6.35;;;16.80;99.90;;;;;;5079335;28;20393;-38
2022/05/17 00:37:36;;;;;;;9.23;6.55;;;16.70;99.90;;;;;;5084519;28;20100;-38
2022/05/17 00:40:04;;;;;;;10.93;6.82;;;16.70;99.90;;;;;;5093144;28;20465;-38
2022/05/17 00:42:29;;;;;;;7.05;5.82;;;16.70;99.90;;;;;;5091780;28;20131;-38
2022/05/17 00:44:55;;;;;;;10.43;6.85;;;16.70;99.90;;;;;;5092704;28;20111;-38
2022/05/17 00:47:35;;;;;;;11.63;7.35;;;16.60;99.90;;;;;;5084210;28;20035;-38
2022/05/17 00:50:09;;;;;;;9.95;6.35;;;16.50;99.90;;;;;;5087921;28;20382;-38
2022/05/17 00:52:51;;;;;;;12.82;7.20;;;16.50;99.90;;;;;;5092047;28;20073;-37
2022/05/17 00:55:44;;;;;;;12.68;7.55;;;16.40;99.90;;;;;;5088867;28;20021;-38
2022/05/17 00:58:14;;;;;;;10.23;7.22;;;16.40;99.90;;;;;;5083223;28;20435;-38
2022/05/17 01:00:49;;;;;;;11.65;8.20;;;16.40;99.90;;;;;;5092253;28;20489;-38
2022/05/17 01:03:17;;;;;;;13.43;8.00;;;16.40;99.90;;;;;;5079065;28;20115;-38
2022/05/17 01:05:46;;;;;;;11.30;7.90;;;16.40;99.90;;;;;;5063060;28;20055;-44
2022/05/17 01:08:15;;;;;;;11.55;8.07;;;16.40;99.90;;;;;;5062829;28;20021;-44
2022/05/17 01:10:40;;;;;;;9.13;7.63;;;16.30;99.90;;;;;;5060777;28;20575;-44
2022/05/17 01:15:50;;;;;;;13.27;9.07;;;16.30;99.90;;;;;;5063053;28;20093;-44
2022/05/17 01:18:16;;;;;;;14.23;10.82;;;16.30;99.90;;;;;;5060230;28;20421;-43
2022/05/17 01:20:42;;;;;;;15.45;11.20;;;16.30;99.90;;;;;;5062771;28;20021;-43
2022/05/17 01:23:08;;;;;;;15.18;10.85;;;16.30;99.90;;;;;;5062735;28;20108;-43
2022/05/17 01:25:34;;;;;;;15.93;12.48;;;16.30;99.90;;;;;;5065189;28;20254;-44
2022/05/17 01:28:22;;;;;;;15.77;11.23;;;16.30;99.90;;;;;;5060679;28;20275;-43
2022/05/17 01:30:48;;;;;;;15.27;11.90;;;16.30;99.90;;;;;;5059609;28;20543;-44
2022/05/17 01:33:15;;;;;;;17.73;12.77;;;16.30;99.90;;;;;;5062660;28;20100;-44
2022/05/17 01:35:42;;;;;;;17.92;12.60;;;16.30;99.90;;;;;;5062444;28;20032;-44
2022/05/17 01:38:08;;;;;;;17.98;14.55;;;16.30;99.90;;;;;;5059103;28;20017;-38
2022/05/17 01:40:34;;;;;;;24.45;16.45;;;16.30;99.90;;;;;;5060735;28;20061;-37
2022/05/17 01:42:59;;;;;;;22.85;14.95;;;16.20;99.90;;;;;;5061443;28;20503;-38
2022/05/17 01:45:25;;;;;;;22.05;16.55;;;16.20;99.90;;;;;;5060227;28;20123;-38
2022/05/17 01:47:50;;;;;;;24.38;17.20;;;16.20;99.90;;;;;;5060829;28;20021;-38
2022/05/17 01:50:16;;;;;;;25.42;16.40;;;16.20;99.90;;;;;;5061579;28;20151;-37
2022/05/17 01:52:42;;;;;;;22.92;16.27;;;16.20;99.90;;;;;;5059001;28;20016;-44
2022/05/17 01:55:08;;;;;;;23.48;16.30;;;16.20;99.90;;;;;;5065533;28;20052;-44
2022/05/17 01:57:33;;;;;;;20.45;14.82;;;16.20;99.90;;;;;;5062461;28;20092;-44
2022/05/17 01:59:59;;;;;;;23.50;15.88;;;16.20;99.90;;;;;;5062777;28;20158;-44
2022/05/17 02:02:24;;;;;;;24.88;15.70;;;16.20;99.90;;;;;;5070602;28;20548;-45
2022/05/17 02:04:50;;;;;;;20.05;15.93;;;16.20;99.90;;;;;;5071101;28;20106;-45
2022/05/17 02:07:15;;;;;;;22.55;16.65;;;16.20;99.90;;;;;;5070548;28;20166;-44
2022/05/17 02:09:41;;;;;;;26.05;15.63;;;16.20;99.90;;;;;;5082435;28;20032;-44
2022/05/17 02:12:07;;;;;;;27.67;15.95;;;16.20;99.90;;;;;;5090657;28;20012;-44
2022/05/17 02:14:33;;;;;;;21.67;16.58;;;16.20;99.90;;;;;;5091486;28;20036;-46
2022/05/17 02:17:00;;;;;;;20.45;15.95;;;16.20;99.90;;;;;;5091045;28;20032;-44
2022/05/17 02:19:26;;;;;;;22.00;15.63;;;16.20;99.90;;;;;;5090975;28;20032;-45
2022/05/17 02:21:51;;;;;;;27.60;17.52;;;16.20;99.90;;;;;;5090472;28;20038;-45
2022/05/17 02:24:17;;;;;;;21.77;16.60;;;16.10;99.90;;;;;;5090678;28;20420;-45
2022/05/17 02:26:43;;;;;;;29.55;17.70;;;16.20;99.90;;;;;;5090899;28;20059;-44
2022/05/17 02:29:09;;;;;;;24.95;16.05;;;16.10;99.90;;;;;;5091255;28;20062;-44
2022/05/17 02:31:34;;;;;;;24.88;17.13;;;16.10;99.90;;;;;;5090221;28;20054;-45
2022/05/17 02:34:00;;;;;;;24.65;15.65;;;16.10;99.90;;;;;;5089233;28;20027;-44
2022/05/17 02:36:25;;;;;;;29.23;15.88;;;16.10;99.90;;;;;;5090669;28;20020;-44
2022/05/17 02:38:51;;;;;;;23.13;16.02;;;16.10;99.90;;;;;;5083854;28;20021;-45
2022/05/17 02:41:20;;;;;;;22.52;16.00;;;16.10;99.90;;;;;;5088202;28;20027;-45
2022/05/17 02:43:46;;;;;;;25.73;18.15;;;16.00;99.90;;;;;;5090608;28;20020;-44
2022/05/17 02:46:12;;;;;;;24.10;16.25;;;16.00;99.90;;;;;;5088606;28;20031;-45
2022/05/17 02:48:38;;;;;;;24.30;17.60;;;16.00;99.90;;;;;;5082450;28;20072;-45
2022/05/17 02:51:11;;;;;;;25.02;17.92;;;16.00;99.90;;;;;;5090234;28;20028;-44
2022/05/17 02:53:37;;;;;;;29.25;18.75;;;16.00;99.90;;;;;;5089497;28;20166;-45
2022/05/17 02:56:03;;;;;;;27.98;17.20;;;16.00;99.90;;;;;;5090238;28;20666;-45
2022/05/17 02:58:28;;;;;;;24.05;16.83;;;16.00;99.90;;;;;;5090494;28;20043;-44
2022/05/17 03:00:54;;;;;;;33.53;18.25;;;15.90;99.90;;;;;;5090309;28;20395;-44
2022/05/17 03:03:19;;;;;;;31.33;18.67;;;15.90;99.90;;;;;;5080059;28;20152;-44
2022/05/17 03:05:45;;;;;;;28.95;19.17;;;15.90;99.90;;;;;;5076685;28;20074;-44
2022/05/17 03:08:10;;;;;;;22.75;17.27;;;15.90;99.90;;;;;;5066206;28;20040;-45
2022/05/17 03:10:36;;;;;;;27.27;18.38;;;15.90;99.90;;;;;;5057082;28;20061;-46
2022/05/17 03:13:01;;;;;;;26.80;18.30;;;15.90;99.90;;;;;;5049226;28;20025;-45
2022/05/17 03:15:27;;;;;;;31.83;19.45;;;16.00;99.90;;;;;;5050211;28;20402;-43
2022/05/17 03:17:52;;;;;;;27.83;19.58;;;16.00;99.90;;;;;;5049586;28;20021;-48
2022/05/17 03:20:18;;;;;;;28.15;19.55;;;16.00;99.90;;;;;;5049727;28;20079;-44
2022/05/17 03:22:44;;;;;;;30.00;18.70;;;16.00;99.90;;;;;;5049148;28;20024;-45
2022/05/17 03:25:09;;;;;;;27.95;17.88;;;15.90;99.90;;;;;;5049522;28;20177;-45
2022/05/17 03:27:35;;;;;;;29.95;19.20;;;16.00;99.90;;;;;;5049585;28;20104;-45
2022/05/17 03:30:01;;;;;;;28.85;20.17;;;16.00;99.90;;;;;;5049572;28;20028;-45
2022/05/17 03:32:26;;;;;;;27.02;19.17;;;16.00;99.90;;;;;;5049227;28;20017;-45
2022/05/17 03:34:52;;;;;;;27.10;19.42;;;15.90;99.90;;;;;;5056587;28;20036;-45
2022/05/17 03:37:17;;;;;;;30.40;18.80;;;15.90;99.90;;;;;;5065516;28;20029;-45
2022/05/17 03:39:43;;;;;;;28.50;19.20;;;16.00;99.90;;;;;;5069563;28;20028;-45
2022/05/17 03:42:09;;;;;;;34.13;20.85;;;15.90;99.90;;;;;;5068687;28;20027;-45
2022/05/17 03:44:36;;;;;;;34.13;21.48;;;15.90;99.90;;;;;;5069037;28;20024;-46
2022/05/17 03:47:07;;;;;;;31.02;19.50;;;15.90;99.90;;;;;;5057351;28;20097;-46
2022/05/17 03:49:33;;;;;;;31.10;21.38;;;15.90;99.90;;;;;;5048928;28;20450;-45
2022/05/17 03:51:59;;;;;;;33.55;22.70;;;15.90;99.90;;;;;;5048309;28;20028;-43
2022/05/17 03:54:25;;;;;;;38.17;22.38;;;15.90;99.90;;;;;;5062021;28;20021;-43
2022/05/17 03:56:51;;;;;;;34.40;21.23;;;15.90;99.90;;;;;;5048488;28;20339;-43
2022/05/17 03:59:17;;;;;;;36.13;24.17;;;15.90;99.90;;;;;;5049567;28;20333;-45
2022/05/17 04:01:44;;;;;;;33.78;21.67;;;15.90;99.90;;;;;;5079040;28;20197;-45
2022/05/17 04:04:10;;;;;;;33.40;21.00;;;15.90;99.90;;;;;;5089553;28;20055;-45
2022/05/17 04:06:35;;;;;;;37.17;24.58;;;15.90;99.90;;;;;;5088774;28;20031;-50
2022/05/17 04:09:01;;;;;;;32.85;23.08;;;16.00;99.90;;;;;;5069583;28;20029;-45
2022/05/17 04:11:26;;;;;;;38.63;24.52;;;16.00;99.90;;;;;;5065225;28;20036;-45
2022/05/17 04:13:52;;;;;;;35.45;23.75;;;16.00;99.90;;;;;;5068729;28;20024;-45
2022/05/17 04:16:17;;;;;;;41.55;26.38;;;16.00;99.90;;;;;;5067312;28;20536;-45
2022/05/17 04:18:43;;;;;;;33.47;23.15;;;15.90;99.90;;;;;;5068983;28;20021;-46
2022/05/17 04:21:09;;;;;;;35.28;23.13;;;16.00;99.90;;;;;;5068541;28;20021;-45
2022/05/17 04:23:37;;;;;;;36.97;24.35;;;16.00;99.90;;;;;;5068158;28;20039;-43
2022/05/17 04:26:02;;;;;;;37.38;23.60;;;16.00;99.90;;;;;;5068273;28;20025;-44
2022/05/17 04:28:28;;;;;;;42.53;24.92;;;15.90;99.90;;;;;;5067042;28;20025;-46
2022/05/17 04:30:53;;;;;;;36.13;22.77;;;15.90;99.90;;;;;;5071194;28;20485;-46
2022/05/17 04:33:19;;;;;;;39.13;23.60;;;15.90;99.90;;;;;;5085917;28;20034;-46
2022/05/17 04:35:44;;;;;;;33.75;23.23;;;15.90;99.90;;;;;;5088760;28;20016;-46
2022/05/17 04:38:10;;;;;;;41.90;24.38;;;15.90;99.90;;;;;;5088796;28;20028;-45
2022/05/17 04:40:35;;;;;;;38.65;23.70;;;16.00;99.90;;;;;;5077887;28;20016;-47
2022/05/17 04:43:01;;;;;;;35.97;23.08;;;16.00;99.90;;;;;;5079868;28;20028;-46
2022/05/17 04:45:27;;;;;;;34.28;23.17;;;16.00;99.90;;;;;;5088355;28;20493;-45
2022/05/17 04:47:53;;;;;;;40.95;28.38;;;16.10;99.90;;;;;;5088288;28;20039;-45
2022/05/17 04:50:19;;;;;;;34.47;24.55;;;16.10;99.90;;;;;;5088133;28;20036;-45
2022/05/17 04:52:47;;;;;;;36.10;24.05;;;16.10;99.90;;;;;;5087767;28;20040;-45
2022/05/17 04:55:14;;;;;;;44.80;25.73;;;16.20;99.90;;;;;;5088442;28;20020;-44
2022/05/17 04:57:39;;;;;;;37.33;24.88;;;16.20;99.90;;;;;;5087978;28;20094;-45
2022/05/17 05:00:09;;;;;;;40.95;26.27;;;16.30;99.90;;;;;;5071403;28;20026;-47
2022/05/17 05:02:35;;;;;;;38.70;26.40;;;16.40;99.90;;;;;;5071545;28;20028;-46
2022/05/17 05:05:01;;;;;;;41.88;27.70;;;16.50;99.90;;;;;;5087067;28;20024;-45
2022/05/17 05:07:26;;;;;;;42.42;29.58;;;16.50;99.90;;;;;;5088763;28;20089;-43
2022/05/17 05:09:52;;;;;;;47.08;28.33;;;16.60;99.90;;;;;;5088184;28;20036;-45
2022/05/17 05:12:17;;;;;;;42.00;27.58;;;16.60;99.90;;;;;;5081002;28;20078;-45
2022/05/17 05:14:43;;;;;;;53.35;30.38;;;16.60;99.90;;;;;;5083523;28;20023;-48
2022/05/17 05:17:09;;;;;;;50.55;31.98;;;16.60;99.90;;;;;;5092295;28;20028;-47
2022/05/17 05:19:35;;;;;;;46.25;30.13;;;16.50;99.90;;;;;;5091042;28;20020;-46
2022/05/17 05:22:00;;;;;;;52.20;31.00;;;16.50;99.90;;;;;;5091845;28;20073;-46
2022/05/17 05:24:26;;;;;;;52.63;32.75;;;16.50;99.90;;;;;;5092131;28;20028;-46
2022/05/17 05:26:51;;;;;;;44.13;29.10;;;16.60;99.90;;;;;;5091734;28;20107;-46
2022/05/17 05:29:17;;;;;;;51.08;31.38;;;16.60;99.90;;;;;;5092169;28;20054;-43
2022/05/17 05:31:42;;;;;;;44.42;29.98;;;16.70;99.90;;;;;;5089845;28;20423;-44
2022/05/17 05:34:08;;;;;;;45.28;31.00;;;16.70;99.90;;;;;;5091788;28;20024;-43
2022/05/17 05:36:33;;;;;;;43.65;29.55;;;16.60;99.90;;;;;;5091806;28;20047;-47
2022/05/17 05:38:59;;;;;;;46.40;32.35;;;16.60;99.90;;;;;;5090504;28;20032;-48
2022/05/17 05:41:24;;;;;;;41.20;30.60;;;16.60;99.90;;;;;;5091541;28;20032;-47
2022/05/17 05:43:50;;;;;;;47.58;31.63;;;16.60;99.90;;;;;;5080257;28;20593;-46
2022/05/17 05:46:15;;;;;;;47.58;30.63;;;16.70;99.90;;;;;;5089249;28;20399;-48
2022/05/17 05:48:41;;;;;;;51.35;33.35;;;16.80;99.90;;;;;;5091874;28;20038;-47
2022/05/17 05:51:08;;;;;;;46.42;30.27;;;16.80;99.90;;;;;;5091683;28;20024;-46
2022/05/17 05:53:33;;;;;;;48.28;31.30;;;17.00;99.90;;;;;;5091409;28;20473;-39
2022/05/17 05:56:01;;;;;;;45.08;31.13;;;17.00;99.90;;;;;;5091535;28;20059;-39
2022/05/17 05:58:39;;;;;;;47.80;30.30;;;17.10;99.90;;;;;;5091828;28;20021;-39
2022/05/17 06:01:06;;;;;;;43.65;29.63;;;17.10;99.90;;;;;;5090180;28;20028;-39
2022/05/17 06:03:33;;;;;;;46.22;32.13;;;17.10;99.90;;;;;;5091138;28;20389;-39
2022/05/17 06:05:58;;;;;;;36.35;27.50;;;17.10;99.90;;;;;;5091729;28;20028;-39
2022/05/17 06:08:24;;;;;;;44.97;29.33;;;17.10;99.90;;;;;;5091632;28;20039;-38
2022/05/17 06:10:49;;;;;;;42.47;27.50;;;17.10;99.90;;;;;;5091043;28;20028;-38
2022/05/17 06:13:16;;;;;;;45.10;28.75;;;17.10;99.90;;;;;;5083163;28;20020;-38
2022/05/17 06:15:43;;;;;;;47.67;29.45;;;17.20;99.90;;;;;;5083959;28;20027;-38
2022/05/17 06:18:09;;;;;;;45.25;30.67;;;17.10;99.90;;;;;;5091432;28;20564;-38
2022/05/17 06:20:36;;;;;;;41.25;28.38;;;17.10;99.90;;;;;;5091257;28;20081;-38
2022/05/17 06:23:02;;;;;;;43.70;28.70;;;17.10;99.90;;;;;;5090105;28;20111;-38
2022/05/17 06:25:28;;;;;;;40.88;28.75;;;17.10;99.90;;;;;;5078515;28;20024;-38
2022/05/17 06:27:54;;;;;;;50.65;31.67;;;17.10;99.90;;;;;;5082416;28;20515;-38
2022/05/17 06:30:20;;;;;;;46.20;30.17;;;17.10;99.90;;;;;;5090630;28;20078;-38
2022/05/17 06:32:45;;;;;;;44.78;29.83;;;17.10;99.90;;;;;;5089821;28;20024;-38
2022/05/17 06:35:12;;;;;;;46.95;32.35;;;17.30;99.90;;;;;;5090215;28;20028;-38
2022/05/17 06:37:38;;;;;;;41.28;29.40;;;17.40;99.90;;;;;;5085262;28;20020;-38
2022/05/17 06:40:05;;;;;;;41.72;27.08;;;17.50;99.90;;;;;;5072763;28;20389;-39
2022/05/17 06:42:32;;;;;;;52.25;29.58;;;17.50;99.90;;;;;;5088934;28;20043;-39
2022/05/17 06:44:58;;;;;;;47.92;28.63;;;17.50;99.90;;;;;;5090649;28;20020;-38
2022/05/17 06:47:23;;;;;;;47.03;29.50;;;17.60;99.90;;;;;;5090249;28;20032;-38
2022/05/17 06:49:49;;;;;;;46.50;31.15;;;17.60;99.90;;;;;;5089024;28;20566;-38
2022/05/17 06:52:16;;;;;;;47.80;29.10;;;17.70;99.90;;;;;;5089675;28;20070;-38
2022/05/17 06:54:43;;;;;;;42.90;30.10;;;17.80;99.90;;;;;;5090269;28;20043;-38
2022/05/17 06:57:10;;;;;;;44.88;29.30;;;17.80;99.90;;;;;;5089894;28;20027;-38
2022/05/17 06:59:39;;;;;;;47.47;32.08;;;17.90;99.90;;;;;;5073080;28;20080;-38
2022/05/17 07:02:06;;;;;;;47.08;33.10;;;18.00;99.90;;;;;;5080822;28;20086;-38
2022/05/17 07:04:33;;;;;;;36.70;26.30;;;18.10;99.90;;;;;;5090053;28;20445;-38
2022/05/17 07:06:59;;;;;;;47.90;30.95;;;18.20;99.90;;;;;;5088562;28;20020;-38
2022/05/17 07:09:26;;;;;;;42.25;27.85;;;18.30;99.90;;;;;;5089480;28;20266;-38
2022/05/17 07:14:37;;;;;;;35.72;25.10;;;18.70;99.90;;;;;;5089753;28;20039;-39
2022/05/17 07:17:11;;;;;;;42.85;27.02;;;18.90;99.90;;;;;;5089784;28;20021;-39
2022/05/17 07:19:37;;;;;;;41.63;26.33;;;19.10;99.90;;;;;;5089729;28;20028;-38
2022/05/17 07:22:05;;;;;;;43.03;28.05;;;19.30;99.90;;;;;;5088924;28;20073;-41
2022/05/17 07:24:31;;;;;;;43.38;28.85;;;19.40;99.90;;;;;;5070198;28;20543;-39
2022/05/17 07:26:58;;;;;;;35.25;23.58;;;19.60;99.90;;;;;;5084099;28;20373;-39
2022/05/17 07:29:24;;;;;;;40.78;25.90;;;19.80;99.90;;;;;;5089638;28;20020;-39
2022/05/17 07:31:49;;;;;;;35.72;23.70;;;20.00;99.90;;;;;;5088788;28;20526;-39
2022/05/17 07:34:16;;;;;;;33.22;23.52;;;19.90;99.90;;;;;;5089370;28;20122;-39
2022/05/17 07:36:41;;;;;;;37.75;25.58;;;19.90;99.90;;;;;;5088512;28;20466;-39
2022/05/17 07:39:08;;;;;;;32.17;22.02;;;19.70;99.90;;;;;;5089385;28;20114;-39
2022/05/17 07:41:34;;;;;;;37.70;26.17;;;19.80;99.90;;;;;;5075689;28;20055;-39
2022/05/17 07:44:01;;;;;;;46.50;27.63;;;20.00;99.90;;;;;;5084658;28;20026;-38
2022/05/17 07:46:27;;;;;;;37.25;25.15;;;19.90;99.90;;;;;;5089567;28;20081;-38
2022/05/17 07:48:52;;;;;;;38.13;25.80;;;19.70;99.90;;;;;;5089686;28;20024;-38
2022/05/17 07:51:18;;;;;;;36.72;26.48;;;19.70;99.90;;;;;;5089180;28;20028;-38
2022/05/17 07:53:43;;;;;;;38.95;26.45;;;19.70;99.90;;;;;;5088718;28;20024;-39
2022/05/17 07:56:09;;;;;;;38.10;24.92;;;19.60;99.90;;;;;;5089180;28;20567;-38
2022/05/17 07:58:34;;;;;;;37.47;24.55;;;19.50;99.90;;;;;;5081856;28;20021;-39
2022/05/17 08:01:01;;;;;;;38.92;24.52;;;19.50;99.90;;;;;;5072792;28;20113;-39
2022/05/17 08:03:26;;;;;;;37.35;26.25;;;19.80;99.90;;;;;;5087354;28;20020;-39
2022/05/17 08:05:52;;;;;;;39.97;25.50;;;20.00;99.90;;;;;;5089387;28;20452;-39
2022/05/17 08:08:17;;;;;;;40.30;24.05;;;20.10;99.90;;;;;;5087900;28;20073;-39
2022/05/17 08:10:43;;;;;;;31.05;22.13;;;20.60;99.90;;;;;;5089110;28;20024;-39
2022/05/17 08:13:09;;;;;;;41.00;25.42;;;20.90;99.90;;;;;;5088119;28;20381;-39
2022/05/17 08:15:34;;;;;;;40.67;26.90;;;20.70;99.90;;;;;;5089056;28;20061;-39
2022/05/17 08:18:04;;;;;;;44.92;25.20;;;20.60;99.90;;;;;;5089053;28;20505;-39
2022/05/17 08:20:30;;;;;;;39.92;22.67;;;20.60;99.90;;;;;;5086890;28;20035;-39
2022/05/17 08:22:56;;;;;;;30.83;19.58;;;21.20;99.90;;;;;;5069575;28;20032;-39
2022/05/17 08:28:06;;;;;;;25.27;15.18;;;22.70;99.90;;;;;;5088507;28;20035;-38
2022/05/17 08:30:33;;;;;;;20.30;12.95;;;23.80;99.90;;;;;;5088712;28;20024;-39
2022/05/17 08:33:16;;;;;;;16.08;11.40;;;25.10;99.90;;;;;;5086557;28;20016;-39
2022/05/17 08:35:55;;;;;;;17.90;11.73;;;25.70;98.60;;;;;;5088574;28;20386;-39
2022/05/17 08:38:28;;;;;;;20.55;14.48;;;26.40;95.20;;;;;;5088612;28;20020;-39
2022/05/17 08:41:18;;;;;;;23.85;12.80;;;26.60;93.20;;;;;;5088602;28;20080;-38
2022/05/17 08:44:02;;;;;;;18.75;12.18;;;27.10;92.90;;;;;;5087868;28;20044;-38
2022/05/17 08:47:05;;;;;;;16.42;10.50;;;28.10;90.50;;;;;;5088872;28;20262;-39
2022/05/17 08:49:58;;;;;;;14.88;10.60;;;28.80;88.10;;;;;;5077714;28;20017;-39
2022/05/17 08:52:26;;;;;;;17.73;7.70;;;29.40;84.50;;;;;;5090481;28;20051;-39
2022/05/17 08:54:55;;;;;;;11.98;7.55;;;29.50;81.10;;;;;;5092482;28;20398;-39
2022/05/17 08:57:41;;;;;;;13.85;8.00;;;29.80;80.00;;;;;;5092214;28;20103;-39
2022/05/17 09:00:22;;;;;;;15.95;9.55;;;30.70;75.20;;;;;;5075101;28;20069;-39
2022/05/17 09:03:25;;;;;;;19.55;7.80;;;30.30;75.30;;;;;;5077657;28;20028;-39
2022/05/17 09:06:25;;;;;;;11.80;6.70;;;30.60;70.60;;;;;;5092307;28;20040;-39
2022/05/17 09:09:38;;;;;;;10.90;5.90;;;31.30;69.10;;;;;;5092182;28;20020;-41
2022/05/17 09:12:14;;;;;;;13.88;7.90;;;32.30;65.90;;;;;;5090502;28;20288;-40
2022/05/17 09:14:46;;;;;;;13.52;8.40;;;32.50;65.10;;;;;;5092125;28;20020;-40
2022/05/17 09:17:15;;;;;;;13.18;7.35;;;31.50;65.60;;;;;;5092374;28;20457;-40
2022/05/17 09:19:41;;;;;;;;;;;30.10;68.80;;;;;;5092613;28;20016;-39
2022/05/17 09:22:07;;;;;;;13.05;6.97;;;29.50;70.90;;;;;;5091423;28;19904;-39
2022/05/17 09:24:41;;;;;;;9.88;6.03;;;29.50;73.30;;;;;;5091925;28;20028;-39
2022/05/17 09:27:35;;;;;;;10.60;6.25;;;29.20;70.60;;;;;;5091549;28;20062;-39
2022/05/17 09:30:24;;;;;;;16.85;8.98;;;28.80;72.30;;;;;;5074755;28;20093;-39
2022/05/17 09:33:05;;;;;;;11.02;6.07;;;29.20;73.00;;;;;;5078728;28;20107;-39
2022/05/17 09:35:36;;;;;;;12.40;7.50;;;30.10;68.90;;;;;;5072825;28;20344;-39
2022/05/17 09:38:04;;;;;;;11.38;6.93;;;30.60;66.60;;;;;;5086924;28;20120;-40
2022/05/17 09:40:34;;;;;;;11.95;5.50;;;31.30;65.60;;;;;;5090285;28;20111;-40
2022/05/17 09:43:04;;;;;;;9.98;5.75;;;30.80;65.00;;;;;;5090669;28;20496;-39
2022/05/17 09:46:00;;;;;;;10.18;6.40;;;29.60;68.00;;;;;;5091533;28;20121;-39
2022/05/17 09:54:27;;;;;;;17.13;7.85;;;27.00;74.60;;;;;;5091605;28;20105;-39
2022/05/17 09:56:53;;;;;;;11.60;7.55;;;25.90;77.80;;;;;;5091009;28;20035;-39
2022/05/17 09:59:22;;;;;;;14.00;7.00;;;25.60;80.50;;;;;;5073179;28;20033;-39
2022/05/17 10:01:50;;;;;;;17.63;7.00;;;25.60;80.80;;;;;;5082456;28;20461;-39
2022/05/17 10:04:21;;;;;;;10.15;5.97;;;26.00;80.30;;;;;;5093526;28;20031;-40
2022/05/17 10:06:55;;;;;;;9.68;5.03;;;26.70;78.90;;;;;;5090342;28;20024;-39
2022/05/17 10:09:29;;;;;;;11.50;5.35;;;27.20;74.80;;;;;;5072348;28;20085;-39
2022/05/17 10:12:16;;;;;;;9.13;5.18;;;28.10;74.00;;;;;;5085120;28;20115;-39
2022/05/17 10:14:52;;;;;;;8.20;4.10;;;29.40;72.30;;;;;;5091296;28;20020;-39
2022/05/17 10:17:49;;;;;;;8.48;4.03;;;29.30;69.60;;;;;;5091058;28;20023;-39
2022/05/17 10:20:27;;;;;;;13.13;5.45;;;30.50;68.00;;;;;;5090750;28;20032;-39
2022/05/17 10:23:41;;;;;;;11.60;5.28;;;30.90;65.10;;;;;;5090393;28;20024;-39
2022/05/17 10:26:13;;;;;;;14.98;6.38;;;30.80;67.30;;;;;;5090847;28;20020;-39
2022/05/17 10:29:09;;;;;;;9.20;4.60;;;31.50;64.00;;;;;;5090699;28;20027;-40
2022/05/17 10:31:43;;;;;;;9.18;3.70;;;31.20;65.50;;;;;;5090426;28;20397;-39
2022/05/17 10:34:17;;;;;;;9.77;4.60;;;30.90;65.00;;;;;;5089637;28;20016;-39
2022/05/17 10:36:46;;;;;;;11.80;4.55;;;30.40;63.50;;;;;;5090778;28;20081;-39
2022/05/17 10:39:17;;;;;;;10.90;5.27;;;29.90;65.20;;;;;;5074211;28;20565;-39
2022/05/17 10:41:43;;;;;;;9.93;4.65;;;28.90;67.00;;;;;;5082494;28;20031;-39
2022/05/17 10:44:14;;;;;;;8.48;4.10;;;28.90;68.50;;;;;;5090487;28;20028;-39
2022/05/17 10:46:48;;;;;;;10.63;4.72;;;28.20;68.40;;;;;;5090566;28;20097;-39
2022/05/17 10:49:36;;;;;;;7.68;3.88;;;27.50;69.60;;;;;;5090251;28;20028;-39
2022/05/17 10:52:31;;;;;;;8.27;4.25;;;26.70;73.20;;;;;;5089634;28;20032;-39
2022/05/17 10:55:17;;;;;;;7.90;3.90;;;26.50;72.60;;;;;;5090260;28;20020;-39
2022/05/17 10:58:27;;;;;;;10.27;4.75;;;26.20;72.70;;;;;;5090031;28;20024;-39
2022/05/17 11:01:05;;;;;;;6.93;3.97;;;25.40;75.30;;;;;;5088833;28;20260;-38
2022/05/17 11:04:04;;;;;;;14.50;4.80;;;24.90;76.40;;;;;;5089403;28;20487;-38
2022/05/17 11:06:52;;;;;;;10.50;4.05;;;25.60;77.90;;;;;;5090348;28;20024;-39
2022/05/17 11:09:35;;;;;;;8.40;3.80;;;27.20;74.00;;;;;;5072720;28;20431;-39
2022/05/17 11:12:09;;;;;;;6.20;3.40;;;29.20;71.30;;;;;;5084796;28;20036;-39
2022/05/17 11:14:57;;;;;;;8.80;3.25;;;31.00;66.80;;;;;;5090078;28;20027;-40
2022/05/17 11:17:39;;;;;;;8.40;3.10;;;31.90;64.10;;;;;;5088559;28;20044;-40
2022/05/17 11:20:09;;;;;;;6.75;3.08;;;31.90;63.20;;;;;;5089993;28;20038;-40
2022/05/17 11:22:48;;;;;;;9.15;3.15;;;32.00;63.00;;;;;;5087739;28;20028;-40
2022/05/17 11:25:54;;;;;;;7.50;2.90;;;33.00;61.60;;;;;;5090100;28;20047;-40
2022/05/17 11:28:49;;;;;;;6.95;3.17;;;33.40;59.10;;;;;;5087233;28;20024;-40
2022/05/17 11:31:33;;;;;;;7.95;2.67;;;32.30;57.60;;;;;;5075381;28;20466;-40
2022/05/17 11:34:23;;;;;;;8.43;2.65;;;31.60;58.50;;;;;;5088981;28;20329;-39
2022/05/17 11:36:51;;;;;;;5.97;2.40;;;30.00;61.50;;;;;;5089546;28;20020;-39
2022/05/17 11:39:31;;;;;;;10.15;3.05;;;28.90;63.70;;;;;;5089359;28;20028;-40
2022/05/17 11:42:29;;;;;;;7.47;2.67;;;28.90;65.20;;;;;;5088715;28;20028;-39
2022/05/17 11:44:56;;;;;;;6.90;2.00;;;28.90;65.30;;;;;;5089208;28;20018;-39
2022/05/17 11:47:45;;;;;;;7.60;2.13;;;28.90;63.60;;;;;;5089186;28;20489;-39
2022/05/17 11:50:18;;;;;;;6.37;2.50;;;28.60;63.20;;;;;;5089006;28;20448;-39
2022/05/17 11:52:46;;;;;;;9.32;2.90;;;27.60;65.30;;;;;;5088489;28;20048;-39
2022/05/17 11:55:17;;;;;;;12.18;2.92;;;26.80;67.00;;;;;;5087778;28;20376;-39
2022/05/17 11:57:48;;;;;;;6.88;3.10;;;26.40;68.90;;;;;;5088750;28;20393;-39
2022/05/17 12:00:23;;;;;;;6.88;3.20;;;26.70;68.50;;;;;;5071419;28;20020;-39
2022/05/17 12:02:58;;;;;;;8.25;2.92;;;27.30;68.80;;;;;;5081831;28;20055;-39
2022/05/17 12:05:42;;;;;;;8.43;3.00;;;28.10;67.60;;;;;;5088917;28;20396;-39
2022/05/17 12:08:31;;;;;;;5.97;2.53;;;28.40;65.50;;;;;;5088895;28;20473;-39
2022/05/17 12:11:14;;;;;;;9.32;3.00;;;28.60;67.30;;;;;;5088871;28;20190;-39
2022/05/17 12:14:08;;;;;;;8.40;2.58;;;28.80;64.10;;;;;;5088312;28;20034;-39
2022/05/17 12:16:35;;;;;;;7.47;2.05;;;28.20;63.00;;;;;;5088945;28;20020;-39
2022/05/17 12:19:13;;;;;;;9.73;2.47;;;28.30;64.80;;;;;;5073231;28;20147;-39
2022/05/17 12:21:51;;;;;;;6.35;2.42;;;28.50;62.90;;;;;;5068068;28;20028;-39
2022/05/17 12:24:49;;;;;;;4.78;2.22;;;28.80;63.60;;;;;;5068480;28;20028;-39
2022/05/17 12:27:23;;;;;;;9.80;2.78;;;29.00;64.20;;;;;;5068643;28;20020;-39
2022/05/17 12:32:51;;;;;;;3.83;1.80;;;28.60;60.60;;;;;;5068237;28;20034;-39
2022/05/17 12:35:27;;;;;;;5.50;1.98;;;28.50;64.00;;;;;;5068410;28;20028;-39
2022/05/17 12:37:53;;;;;;;5.50;2.30;;;28.80;60.20;;;;;;5067216;28;20474;-39
2022/05/17 12:43:25;;;;;;;7.70;2.22;;;29.00;61.00;;;;;;5068606;28;20031;-39
2022/05/17 12:45:52;;;;;;;4.43;2.08;;;29.00;58.80;;;;;;5068357;28;20078;-39
2022/05/17 12:48:24;;;;;;;4.25;1.92;;;28.70;58.50;;;;;;5067867;28;20466;-39
2022/05/17 12:50:56;;;;;;;5.30;2.50;;;29.00;60.70;;;;;;5070596;28;20048;-39
2022/05/17 12:53:25;;;;;;;4.25;2.25;;;28.70;58.90;;;;;;5086024;28;20088;-39
2022/05/17 12:56:05;;;;;;;5.45;2.53;;;29.10;59.30;;;;;;5088731;28;20378;-39
2022/05/17 12:58:32;;;;;;;6.07;2.80;;;29.10;57.80;;;;;;5088384;28;20035;-39
2022/05/17 13:00:59;;;;;;;4.18;1.88;;;29.10;57.80;;;;;;5071922;28;20397;-39
2022/05/17 13:03:27;;;;;;;7.13;1.98;;;29.10;58.60;;;;;;5086315;28;20035;-39
2022/05/17 13:05:54;;;;;;;9.27;7.13;;;29.20;59.70;;;;;;5088543;28;20036;-39
2022/05/17 13:08:39;;;;;;;16.17;12.55;;;29.10;65.70;;;;;;5088464;28;20038;-39
2022/05/17 13:11:09;;;;;;;20.23;12.23;;;28.00;69.30;;;;;;5088374;28;20279;-39